In Rescue
 
Open Full Screen Window  High Contrast Mode
Wind Gusting 00 knots
07
January 16, 2020 12:29 AM CST
Weather Information
Wind Direction
  300 °
Wind Speed
  07 kt (8 mph)
Wind Gust
  00 kt (0 mph)
Altimeter
30.66 in
Visibility
10 SM
Temperature
-26° C
-14° F
Dewpoint
-32° C
-25° F
Humidity
57%
1hr Rain Fall
00.00 in.
24hr Rain Fall
00.00 in.
Sky Condition
Clear
VFR

METAR KJKJ 160629Z AUTO 30007KT 10SM CLR M26/M32 A3066 RMK AO2

FAA Disclaimer: The data displayed is for advisory purposes only and is not to be used for flight planning or operations.